sensor_id;sensor_type;location;lat;lon;timestamp;P1;durP1;ratioP1;P2;durP2;ratioP2
1262;SDS011;62267;50.112;8.704;2023-06-24T00:02:14;9.23;;;7.80;;
1262;SDS011;62267;50.112;8.704;2023-06-24T00:04:42;10.50;;;9.50;;
1262;SDS011;62267;50.112;8.704;2023-06-24T00:07:13;10.63;;;9.60;;
1262;SDS011;62267;50.112;8.704;2023-06-24T00:09:41;12.00;;;9.27;;
1262;SDS011;62267;50.112;8.704;2023-06-24T00:12:09;10.00;;;9.00;;
1262;SDS011;62267;50.112;8.704;2023-06-24T00:14:36;10.80;;;9.00;;
1262;SDS011;62267;50.112;8.704;2023-06-24T00:17:04;9.10;;;8.20;;
1262;SDS011;62267;50.112;8.704;2023-06-24T00:19:35;12.50;;;8.87;;
1262;SDS011;62267;50.112;8.704;2023-06-24T00:22:03;9.77;;;8.53;;
1262;SDS011;62267;50.112;8.704;2023-06-24T00:24:33;9.67;;;8.77;;
1262;SDS011;62267;50.112;8.704;2023-06-24T00:27:04;10.83;;;9.83;;
1262;SDS011;62267;50.112;8.704;2023-06-24T00:29:32;10.47;;;9.40;;
1262;SDS011;62267;50.112;8.704;2023-06-24T00:31:59;9.90;;;9.00;;
1262;SDS011;62267;50.112;8.704;2023-06-24T00:34:29;10.53;;;9.60;;
1262;SDS011;62267;50.112;8.704;2023-06-24T00:36:59;9.97;;;9.00;;
1262;SDS011;62267;50.112;8.704;2023-06-24T00:39:27;10.43;;;9.17;;
1262;SDS011;62267;50.112;8.704;2023-06-24T00:41:55;11.43;;;9.17;;
1262;SDS011;62267;50.112;8.704;2023-06-24T00:44:22;10.63;;;9.63;;
1262;SDS011;62267;50.112;8.704;2023-06-24T00:46:51;12.13;;;8.30;;
1262;SDS011;62267;50.112;8.704;2023-06-24T00:49:20;9.23;;;8.33;;
1262;SDS011;62267;50.112;8.704;2023-06-24T00:51:47;10.00;;;9.00;;
1262;SDS011;62267;50.112;8.704;2023-06-24T00:54:17;9.50;;;8.70;;
1262;SDS011;62267;50.112;8.704;2023-06-24T00:56:45;9.70;;;8.87;;
1262;SDS011;62267;50.112;8.704;2023-06-24T00:59:15;10.17;;;9.20;;
1262;SDS011;62267;50.112;8.704;2023-06-24T01:01:42;10.03;;;9.00;;
1262;SDS011;62267;50.112;8.704;2023-06-24T01:04:11;10.00;;;9.10;;
1262;SDS011;62267;50.112;8.704;2023-06-24T01:06:39;9.03;;;8.13;;
1262;SDS011;62267;50.112;8.704;2023-06-24T01:09:10;9.60;;;8.80;;
1262;SDS011;62267;50.112;8.704;2023-06-24T01:11:38;11.07;;;9.20;;
1262;SDS011;62267;50.112;8.704;2023-06-24T01:14:06;10.70;;;8.70;;
1262;SDS011;62267;50.112;8.704;2023-06-24T01:19:28;11.33;;;8.83;;
1262;SDS011;62267;50.112;8.704;2023-06-24T01:27:28;9.40;;;8.60;;
1262;SDS011;62267;50.112;8.704;2023-06-24T01:32:57;9.10;;;8.30;;
1262;SDS011;62267;50.112;8.704;2023-06-24T01:35:28;10.20;;;9.20;;
1262;SDS011;62267;50.112;8.704;2023-06-24T01:37:56;13.03;;;10.00;;
1262;SDS011;62267;50.112;8.704;2023-06-24T01:40:27;10.00;;;9.00;;
1262;SDS011;62267;50.112;8.704;2023-06-24T01:42:55;10.23;;;9.40;;
1262;SDS011;62267;50.112;8.704;2023-06-24T01:45:26;9.80;;;8.90;;
1262;SDS011;62267;50.112;8.704;2023-06-24T01:48:03;9.13;;;8.43;;
1262;SDS011;62267;50.112;8.704;2023-06-24T01:50:33;8.80;;;8.03;;
1262;SDS011;62267;50.112;8.704;2023-06-24T01:53:04;10.23;;;9.27;;
1262;SDS011;62267;50.112;8.704;2023-06-24T01:55:32;9.20;;;8.40;;
1262;SDS011;62267;50.112;8.704;2023-06-24T01:58:02;10.40;;;9.40;;
1262;SDS011;62267;50.112;8.704;2023-06-24T02:00:29;10.40;;;9.40;;
1262;SDS011;62267;50.112;8.704;2023-06-24T02:02:57;9.60;;;8.70;;
1262;SDS011;62267;50.112;8.704;2023-06-24T02:05:27;10.10;;;9.17;;
1262;SDS011;62267;50.112;8.704;2023-06-24T02:07:55;10.50;;;9.50;;
1262;SDS011;62267;50.112;8.704;2023-06-24T02:10:23;10.50;;;8.60;;
1262;SDS011;62267;50.112;8.704;2023-06-24T02:12:52;12.60;;;9.13;;
1262;SDS011;62267;50.112;8.704;2023-06-24T02:15:20;10.53;;;9.63;;
1262;SDS011;62267;50.112;8.704;2023-06-24T02:17:50;11.83;;;9.07;;
1262;SDS011;62267;50.112;8.704;2023-06-24T02:20:18;11.60;;;10.50;;
1262;SDS011;62267;50.112;8.704;2023-06-24T02:22:50;10.70;;;9.70;;
1262;SDS011;62267;50.112;8.704;2023-06-24T02:25:17;12.10;;;10.67;;
1262;SDS011;62267;50.112;8.704;2023-06-24T02:27:49;9.37;;;8.57;;
1262;SDS011;62267;50.112;8.704;2023-06-24T02:30:19;10.30;;;9.40;;
1262;SDS011;62267;50.112;8.704;2023-06-24T02:32:47;11.43;;;10.20;;
1262;SDS011;62267;50.112;8.704;2023-06-24T02:35:15;11.10;;;9.77;;
1262;SDS011;62267;50.112;8.704;2023-06-24T02:37:49;10.03;;;9.13;;
1262;SDS011;62267;50.112;8.704;2023-06-24T02:40:17;13.80;;;9.90;;
1262;SDS011;62267;50.112;8.704;2023-06-24T02:42:46;10.20;;;9.17;;
1262;SDS011;62267;50.112;8.704;2023-06-24T02:45:13;11.40;;;9.93;;
1262;SDS011;62267;50.112;8.704;2023-06-24T02:47:42;11.73;;;10.07;;
1262;SDS011;62267;50.112;8.704;2023-06-24T02:50:11;9.93;;;8.97;;
1262;SDS011;62267;50.112;8.704;2023-06-24T02:52:40;11.77;;;10.60;;
1262;SDS011;62267;50.112;8.704;2023-06-24T02:55:11;16.03;;;10.77;;
1262;SDS011;62267;50.112;8.704;2023-06-24T02:57:59;13.17;;;10.83;;
1262;SDS011;62267;50.112;8.704;2023-06-24T03:00:35;11.47;;;10.27;;
1262;SDS011;62267;50.112;8.704;2023-06-24T03:03:07;11.20;;;10.20;;
1262;SDS011;62267;50.112;8.704;2023-06-24T03:05:40;10.30;;;9.30;;
1262;SDS011;62267;50.112;8.704;2023-06-24T03:08:12;10.53;;;9.53;;
1262;SDS011;62267;50.112;8.704;2023-06-24T03:10:43;11.53;;;9.50;;
1262;SDS011;62267;50.112;8.704;2023-06-24T03:13:16;10.57;;;9.57;;
1262;SDS011;62267;50.112;8.704;2023-06-24T03:15:50;10.30;;;9.40;;
1262;SDS011;62267;50.112;8.704;2023-06-24T03:18:17;10.83;;;9.80;;
1262;SDS011;62267;50.112;8.704;2023-06-24T03:20:48;11.87;;;10.67;;
1262;SDS011;62267;50.112;8.704;2023-06-24T03:23:21;10.27;;;9.23;;
1262;SDS011;62267;50.112;8.704;2023-06-24T03:25:49;11.33;;;10.20;;
1262;SDS011;62267;50.112;8.704;2023-06-24T03:28:17;10.90;;;9.90;;
1262;SDS011;62267;50.112;8.704;2023-06-24T03:30:50;11.40;;;10.30;;
1262;SDS011;62267;50.112;8.704;2023-06-24T03:33:19;11.57;;;10.47;;
1262;SDS011;62267;50.112;8.704;2023-06-24T03:35:46;11.63;;;10.43;;
1262;SDS011;62267;50.112;8.704;2023-06-24T03:38:17;10.40;;;9.37;;
1262;SDS011;62267;50.112;8.704;2023-06-24T03:40:47;10.17;;;9.27;;
1262;SDS011;62267;50.112;8.704;2023-06-24T03:43:15;11.03;;;10.03;;
1262;SDS011;62267;50.112;8.704;2023-06-24T03:45:42;9.93;;;9.10;;
1262;SDS011;62267;50.112;8.704;2023-06-24T03:48:10;10.33;;;9.33;;
1262;SDS011;62267;50.112;8.704;2023-06-24T03:50:39;9.47;;;8.57;;
1262;SDS011;62267;50.112;8.704;2023-06-24T03:53:07;11.50;;;10.50;;
1262;SDS011;62267;50.112;8.704;2023-06-24T03:55:37;10.40;;;9.50;;
1262;SDS011;62267;50.112;8.704;2023-06-24T03:58:06;11.00;;;10.00;;
1262;SDS011;62267;50.112;8.704;2023-06-24T04:00:36;9.00;;;8.10;;
1262;SDS011;62267;50.112;8.704;2023-06-24T04:03:07;9.27;;;8.47;;
1262;SDS011;62267;50.112;8.704;2023-06-24T04:05:38;8.43;;;7.63;;
1262;SDS011;62267;50.112;8.704;2023-06-24T04:08:06;10.70;;;9.80;;
1262;SDS011;62267;50.112;8.704;2023-06-24T04:10:37;10.90;;;9.80;;
1262;SDS011;62267;50.112;8.704;2023-06-24T04:13:08;10.53;;;9.50;;
1262;SDS011;62267;50.112;8.704;2023-06-24T04:15:37;11.27;;;10.20;;
1262;SDS011;62267;50.112;8.704;2023-06-24T04:18:07;11.37;;;10.17;;
1262;SDS011;62267;50.112;8.704;2023-06-24T04:20:36;10.53;;;9.53;;
1262;SDS011;62267;50.112;8.704;2023-06-24T04:23:04;12.40;;;11.20;;
1262;SDS011;62267;50.112;8.704;2023-06-24T04:25:32;10.60;;;9.60;;
1262;SDS011;62267;50.112;8.704;2023-06-24T04:28:02;9.60;;;8.70;;
1262;SDS011;62267;50.112;8.704;2023-06-24T04:30:31;10.63;;;8.93;;
1262;SDS011;62267;50.112;8.704;2023-06-24T04:32:59;9.63;;;8.73;;
1262;SDS011;62267;50.112;8.704;2023-06-24T04:35:27;10.13;;;9.23;;
1262;SDS011;62267;50.112;8.704;2023-06-24T04:37:54;10.37;;;9.37;;
1262;SDS011;62267;50.112;8.704;2023-06-24T04:40:22;11.67;;;8.97;;
1262;SDS011;62267;50.112;8.704;2023-06-24T04:42:50;10.00;;;8.97;;
1262;SDS011;62267;50.112;8.704;2023-06-24T04:45:17;12.57;;;11.27;;
1262;SDS011;62267;50.112;8.704;2023-06-24T04:47:45;11.03;;;9.93;;
1262;SDS011;62267;50.112;8.704;2023-06-24T04:50:14;11.60;;;10.60;;
1262;SDS011;62267;50.112;8.704;2023-06-24T04:52:41;12.07;;;9.93;;
1262;SDS011;62267;50.112;8.704;2023-06-24T04:55:11;11.20;;;10.00;;
1262;SDS011;62267;50.112;8.704;2023-06-24T04:57:41;11.83;;;10.73;;
1262;SDS011;62267;50.112;8.704;2023-06-24T05:00:08;12.43;;;11.33;;
1262;SDS011;62267;50.112;8.704;2023-06-24T05:02:36;12.00;;;10.63;;
1262;SDS011;62267;50.112;8.704;2023-06-24T05:05:03;15.60;;;11.67;;
1262;SDS011;62267;50.112;8.704;2023-06-24T05:07:31;12.70;;;11.50;;
1262;SDS011;62267;50.112;8.704;2023-06-24T05:10:02;11.60;;;10.47;;
1262;SDS011;62267;50.112;8.704;2023-06-24T05:12:30;11.40;;;10.20;;
1262;SDS011;62267;50.112;8.704;2023-06-24T05:14:58;16.47;;;11.13;;
1262;SDS011;62267;50.112;8.704;2023-06-24T05:17:26;13.90;;;12.27;;
1262;SDS011;62267;50.112;8.704;2023-06-24T05:20:00;14.17;;;11.83;;
1262;SDS011;62267;50.112;8.704;2023-06-24T05:22:31;12.90;;;11.60;;
1262;SDS011;62267;50.112;8.704;2023-06-24T05:25:00;12.43;;;11.13;;
1262;SDS011;62267;50.112;8.704;2023-06-24T05:27:27;12.80;;;11.07;;
1262;SDS011;62267;50.112;8.704;2023-06-24T05:29:54;13.13;;;11.47;;
1262;SDS011;62267;50.112;8.704;2023-06-24T05:32:30;12.63;;;11.43;;
1262;SDS011;62267;50.112;8.704;2023-06-24T05:34:59;13.07;;;11.73;;
1262;SDS011;62267;50.112;8.704;2023-06-24T05:37:31;13.73;;;12.23;;
1262;SDS011;62267;50.112;8.704;2023-06-24T05:40:09;15.47;;;13.40;;
1262;SDS011;62267;50.112;8.704;2023-06-24T05:42:38;15.03;;;13.27;;
1262;SDS011;62267;50.112;8.704;2023-06-24T05:45:06;14.40;;;13.10;;
1262;SDS011;62267;50.112;8.704;2023-06-24T05:47:41;17.97;;;14.37;;
1262;SDS011;62267;50.112;8.704;2023-06-24T05:50:08;15.10;;;12.90;;
1262;SDS011;62267;50.112;8.704;2023-06-24T05:52:35;17.93;;;14.33;;
1262;SDS011;62267;50.112;8.704;2023-06-24T05:55:03;13.90;;;12.60;;
1262;SDS011;62267;50.112;8.704;2023-06-24T05:57:31;15.17;;;13.53;;
1262;SDS011;62267;50.112;8.704;2023-06-24T05:59:58;14.17;;;12.73;;
1262;SDS011;62267;50.112;8.704;2023-06-24T06:02:26;14.30;;;12.33;;
1262;SDS011;62267;50.112;8.704;2023-06-24T06:04:54;12.77;;;11.57;;
1262;SDS011;62267;50.112;8.704;2023-06-24T06:07:22;13.10;;;11.73;;
1262;SDS011;62267;50.112;8.704;2023-06-24T06:09:50;11.73;;;10.33;;
1262;SDS011;62267;50.112;8.704;2023-06-24T06:12:17;11.20;;;10.20;;
1262;SDS011;62267;50.112;8.704;2023-06-24T06:14:45;12.10;;;10.90;;
1262;SDS011;62267;50.112;8.704;2023-06-24T06:17:13;12.43;;;11.23;;
1262;SDS011;62267;50.112;8.704;2023-06-24T06:19:43;13.33;;;11.90;;
1262;SDS011;62267;50.112;8.704;2023-06-24T06:22:16;13.30;;;11.90;;
1262;SDS011;62267;50.112;8.704;2023-06-24T06:24:45;14.70;;;12.70;;
1262;SDS011;62267;50.112;8.704;2023-06-24T06:27:13;15.07;;;12.33;;
1262;SDS011;62267;50.112;8.704;2023-06-24T06:29:41;13.07;;;11.60;;
1262;SDS011;62267;50.112;8.704;2023-06-24T06:32:09;14.23;;;12.03;;
1262;SDS011;62267;50.112;8.704;2023-06-24T06:34:37;12.73;;;11.63;;
1262;SDS011;62267;50.112;8.704;2023-06-24T06:37:05;18.73;;;12.40;;
1262;SDS011;62267;50.112;8.704;2023-06-24T06:39:32;15.30;;;13.70;;
1262;SDS011;62267;50.112;8.704;2023-06-24T06:42:02;13.00;;;11.77;;
1262;SDS011;62267;50.112;8.704;2023-06-24T06:44:30;14.00;;;12.50;;
1262;SDS011;62267;50.112;8.704;2023-06-24T06:46:57;14.33;;;12.90;;
1262;SDS011;62267;50.112;8.704;2023-06-24T06:49:27;17.47;;;13.13;;
1262;SDS011;62267;50.112;8.704;2023-06-24T06:51:56;13.93;;;12.50;;
1262;SDS011;62267;50.112;8.704;2023-06-24T06:54:24;13.53;;;12.30;;
1262;SDS011;62267;50.112;8.704;2023-06-24T06:56:51;17.27;;;12.00;;
1262;SDS011;62267;50.112;8.704;2023-06-24T06:59:24;16.60;;;13.30;;
1262;SDS011;62267;50.112;8.704;2023-06-24T07:01:54;17.00;;;12.20;;
1262;SDS011;62267;50.112;8.704;2023-06-24T07:04:21;14.90;;;12.47;;
1262;SDS011;62267;50.112;8.704;2023-06-24T07:06:49;12.83;;;11.53;;
1262;SDS011;62267;50.112;8.704;2023-06-24T07:09:23;16.00;;;11.67;;
1262;SDS011;62267;50.112;8.704;2023-06-24T07:11:50;13.50;;;12.20;;
1262;SDS011;62267;50.112;8.704;2023-06-24T07:14:24;14.80;;;12.47;;
1262;SDS011;62267;50.112;8.704;2023-06-24T07:16:53;13.40;;;12.10;;
1262;SDS011;62267;50.112;8.704;2023-06-24T07:19:23;11.60;;;10.50;;
1262;SDS011;62267;50.112;8.704;2023-06-24T07:21:52;26.00;;;19.40;;
1262;SDS011;62267;50.112;8.704;2023-06-24T07:24:20;18.90;;;15.00;;
1262;SDS011;62267;50.112;8.704;2023-06-24T07:26:49;13.40;;;12.00;;
1262;SDS011;62267;50.112;8.704;2023-06-24T07:29:16;12.67;;;11.57;;
1262;SDS011;62267;50.112;8.704;2023-06-24T07:31:46;16.00;;;13.20;;
1262;SDS011;62267;50.112;8.704;2023-06-24T07:34:15;15.07;;;12.13;;
1262;SDS011;62267;50.112;8.704;2023-06-24T07:36:42;12.90;;;11.53;;
1262;SDS011;62267;50.112;8.704;2023-06-24T07:39:10;15.33;;;13.83;;
1262;SDS011;62267;50.112;8.704;2023-06-24T07:41:38;13.87;;;12.67;;
1262;SDS011;62267;50.112;8.704;2023-06-24T07:44:25;13.90;;;12.60;;
1262;SDS011;62267;50.112;8.704;2023-06-24T07:46:53;12.80;;;11.60;;
1262;SDS011;62267;50.112;8.704;2023-06-24T07:49:20;13.37;;;12.00;;
1262;SDS011;62267;50.112;8.704;2023-06-24T07:51:48;10.90;;;9.93;;
1262;SDS011;62267;50.112;8.704;2023-06-24T07:54:15;10.43;;;9.33;;
1262;SDS011;62267;50.112;8.704;2023-06-24T07:56:42;12.57;;;11.30;;
1262;SDS011;62267;50.112;8.704;2023-06-24T07:59:12;10.90;;;9.90;;
1262;SDS011;62267;50.112;8.704;2023-06-24T08:01:39;11.40;;;10.37;;
1262;SDS011;62267;50.112;8.704;2023-06-24T08:04:07;11.70;;;10.70;;
1262;SDS011;62267;50.112;8.704;2023-06-24T08:06:36;11.10;;;10.00;;
1262;SDS011;62267;50.112;8.704;2023-06-24T08:09:03;12.60;;;11.43;;
1262;SDS011;62267;50.112;8.704;2023-06-24T08:11:31;10.90;;;9.90;;
1262;SDS011;62267;50.112;8.704;2023-06-24T08:13:58;11.47;;;10.27;;
1262;SDS011;62267;50.112;8.704;2023-06-24T08:16:26;12.73;;;11.53;;
1262;SDS011;62267;50.112;8.704;2023-06-24T08:18:53;11.70;;;10.70;;
1262;SDS011;62267;50.112;8.704;2023-06-24T08:21:22;12.13;;;10.90;;
1262;SDS011;62267;50.112;8.704;2023-06-24T08:23:50;10.83;;;9.83;;
1262;SDS011;62267;50.112;8.704;2023-06-24T08:26:25;12.23;;;11.10;;
1262;SDS011;62267;50.112;8.704;2023-06-24T08:28:55;13.23;;;11.27;;
1262;SDS011;62267;50.112;8.704;2023-06-24T08:31:25;12.60;;;11.37;;
1262;SDS011;62267;50.112;8.704;2023-06-24T08:33:58;12.73;;;11.03;;
1262;SDS011;62267;50.112;8.704;2023-06-24T08:36:33;10.87;;;9.87;;
1262;SDS011;62267;50.112;8.704;2023-06-24T08:39:00;11.53;;;9.97;;
1262;SDS011;62267;50.112;8.704;2023-06-24T08:41:30;10.60;;;9.47;;
1262;SDS011;62267;50.112;8.704;2023-06-24T08:43:58;11.73;;;10.00;;
1262;SDS011;62267;50.112;8.704;2023-06-24T08:46:25;10.80;;;9.07;;
1262;SDS011;62267;50.112;8.704;2023-06-24T08:48:59;13.40;;;12.10;;
1262;SDS011;62267;50.112;8.704;2023-06-24T08:51:29;12.83;;;10.70;;
1262;SDS011;62267;50.112;8.704;2023-06-24T08:53:59;12.30;;;11.20;;
1262;SDS011;62267;50.112;8.704;2023-06-24T08:56:26;10.73;;;9.73;;
1262;SDS011;62267;50.112;8.704;2023-06-24T08:58:56;10.33;;;9.43;;
1262;SDS011;62267;50.112;8.704;2023-06-24T09:01:23;10.50;;;9.50;;
1262;SDS011;62267;50.112;8.704;2023-06-24T09:03:53;10.27;;;9.33;;
1262;SDS011;62267;50.112;8.704;2023-06-24T09:06:21;10.33;;;9.10;;
1262;SDS011;62267;50.112;8.704;2023-06-24T09:08:55;9.37;;;8.60;;
1262;SDS011;62267;50.112;8.704;2023-06-24T09:11:27;10.20;;;9.20;;
1262;SDS011;62267;50.112;8.704;2023-06-24T09:13:58;9.57;;;8.43;;
1262;SDS011;62267;50.112;8.704;2023-06-24T09:16:28;9.40;;;8.43;;
1262;SDS011;62267;50.112;8.704;2023-06-24T09:18:56;8.00;;;7.30;;
1262;SDS011;62267;50.112;8.704;2023-06-24T09:21:28;8.40;;;7.37;;
1262;SDS011;62267;50.112;8.704;2023-06-24T09:23:59;9.90;;;9.00;;
1262;SDS011;62267;50.112;8.704;2023-06-24T09:26:29;10.23;;;7.90;;
1262;SDS011;62267;50.112;8.704;2023-06-24T09:29:00;9.33;;;8.50;;
1262;SDS011;62267;50.112;8.704;2023-06-24T09:31:27;10.40;;;9.40;;
1262;SDS011;62267;50.112;8.704;2023-06-24T09:33:58;12.73;;;11.47;;
1262;SDS011;62267;50.112;8.704;2023-06-24T09:36:28;12.53;;;10.40;;
1262;SDS011;62267;50.112;8.704;2023-06-24T09:39:02;11.50;;;10.40;;
1262;SDS011;62267;50.112;8.704;2023-06-24T09:41:42;11.30;;;10.30;;
1262;SDS011;62267;50.112;8.704;2023-06-24T09:44:13;9.93;;;9.03;;
1262;SDS011;62267;50.112;8.704;2023-06-24T09:46:43;9.77;;;8.83;;
1262;SDS011;62267;50.112;8.704;2023-06-24T09:49:13;10.20;;;9.30;;
1262;SDS011;62267;50.112;8.704;2023-06-24T09:51:45;9.43;;;8.63;;
1262;SDS011;62267;50.112;8.704;2023-06-24T09:54:13;9.00;;;8.10;;
1262;SDS011;62267;50.112;8.704;2023-06-24T09:56:50;9.17;;;8.37;;
1262;SDS011;62267;50.112;8.704;2023-06-24T09:59:21;13.07;;;9.00;;
1262;SDS011;62267;50.112;8.704;2023-06-24T10:01:52;9.40;;;8.57;;
1262;SDS011;62267;50.112;8.704;2023-06-24T10:04:20;9.13;;;8.23;;
1262;SDS011;62267;50.112;8.704;2023-06-24T10:06:51;8.67;;;7.80;;
1262;SDS011;62267;50.112;8.704;2023-06-24T10:09:21;7.30;;;6.70;;
1262;SDS011;62267;50.112;8.704;2023-06-24T10:11:49;9.07;;;8.27;;
1262;SDS011;62267;50.112;8.704;2023-06-24T10:14:18;8.50;;;7.70;;
1262;SDS011;62267;50.112;8.704;2023-06-24T10:16:48;9.70;;;8.80;;
1262;SDS011;62267;50.112;8.704;2023-06-24T10:19:18;9.60;;;8.70;;
1262;SDS011;62267;50.112;8.704;2023-06-24T10:21:54;10.73;;;9.67;;
1262;SDS011;62267;50.112;8.704;2023-06-24T10:24:31;9.97;;;8.97;;
1262;SDS011;62267;50.112;8.704;2023-06-24T10:27:10;9.00;;;8.30;;
1262;SDS011;62267;50.112;8.704;2023-06-24T10:29:46;7.70;;;7.00;;
1262;SDS011;62267;50.112;8.704;2023-06-24T10:32:14;9.17;;;8.27;;
1262;SDS011;62267;50.112;8.704;2023-06-24T10:34:47;7.77;;;7.17;;
1262;SDS011;62267;50.112;8.704;2023-06-24T10:37:19;8.20;;;7.50;;
1262;SDS011;62267;50.112;8.704;2023-06-24T10:40:00;8.90;;;8.20;;
1262;SDS011;62267;50.112;8.704;2023-06-24T10:47:36;10.20;;;8.30;;
1262;SDS011;62267;50.112;8.704;2023-06-24T10:50:06;8.60;;;7.80;;
1262;SDS011;62267;50.112;8.704;2023-06-24T10:52:38;10.60;;;9.60;;
1262;SDS011;62267;50.112;8.704;2023-06-24T10:55:06;9.13;;;8.10;;
1262;SDS011;62267;50.112;8.704;2023-06-24T10:57:34;8.63;;;7.90;;
1262;SDS011;62267;50.112;8.704;2023-06-24T11:00:02;7.70;;;6.90;;
1262;SDS011;62267;50.112;8.704;2023-06-24T11:02:31;8.30;;;7.50;;
1262;SDS011;62267;50.112;8.704;2023-06-24T11:05:01;11.93;;;8.83;;
1262;SDS011;62267;50.112;8.704;2023-06-24T11:07:30;7.83;;;7.03;;
1262;SDS011;62267;50.112;8.704;2023-06-24T11:10:00;8.03;;;7.27;;
1262;SDS011;62267;50.112;8.704;2023-06-24T11:12:34;7.47;;;6.83;;
1262;SDS011;62267;50.112;8.704;2023-06-24T11:15:02;7.03;;;6.50;;
1262;SDS011;62267;50.112;8.704;2023-06-24T11:17:30;8.90;;;6.87;;
1262;SDS011;62267;50.112;8.704;2023-06-24T11:20:01;8.03;;;7.27;;
1262;SDS011;62267;50.112;8.704;2023-06-24T11:22:29;8.23;;;7.57;;
1262;SDS011;62267;50.112;8.704;2023-06-24T11:24:58;7.80;;;6.43;;
1262;SDS011;62267;50.112;8.704;2023-06-24T11:27:28;8.77;;;7.87;;
1262;SDS011;62267;50.112;8.704;2023-06-24T11:29:59;8.10;;;7.30;;
1262;SDS011;62267;50.112;8.704;2023-06-24T11:32:40;7.60;;;7.00;;
1262;SDS011;62267;50.112;8.704;2023-06-24T11:35:11;7.80;;;7.10;;
1262;SDS011;62267;50.112;8.704;2023-06-24T11:37:42;7.63;;;7.03;;
1262;SDS011;62267;50.112;8.704;2023-06-24T11:40:12;8.90;;;7.43;;
1262;SDS011;62267;50.112;8.704;2023-06-24T11:42:44;7.97;;;7.27;;
1262;SDS011;62267;50.112;8.704;2023-06-24T11:45:13;11.67;;;8.10;;
1262;SDS011;62267;50.112;8.704;2023-06-24T11:47:43;7.53;;;6.93;;
1262;SDS011;62267;50.112;8.704;2023-06-24T11:50:11;7.80;;;7.10;;
1262;SDS011;62267;50.112;8.704;2023-06-24T11:52:42;7.50;;;6.90;;
1262;SDS011;62267;50.112;8.704;2023-06-24T11:55:17;7.73;;;7.10;;
1262;SDS011;62267;50.112;8.704;2023-06-24T11:57:49;10.10;;;7.30;;
1262;SDS011;62267;50.112;8.704;2023-06-24T12:00:26;8.80;;;7.97;;
1262;SDS011;62267;50.112;8.704;2023-06-24T12:02:55;8.77;;;7.93;;
1262;SDS011;62267;50.112;8.704;2023-06-24T12:05:28;8.33;;;7.60;;
1262;SDS011;62267;50.112;8.704;2023-06-24T12:07:57;9.07;;;7.53;;
1262;SDS011;62267;50.112;8.704;2023-06-24T12:10:27;8.30;;;7.60;;
1262;SDS011;62267;50.112;8.704;2023-06-24T12:12:58;7.77;;;7.10;;
1262;SDS011;62267;50.112;8.704;2023-06-24T12:15:28;7.93;;;7.23;;
1262;SDS011;62267;50.112;8.704;2023-06-24T12:17:56;8.60;;;7.80;;
1262;SDS011;62267;50.112;8.704;2023-06-24T12:20:28;7.90;;;7.30;;
1262;SDS011;62267;50.112;8.704;2023-06-24T12:23:03;8.17;;;7.47;;
1262;SDS011;62267;50.112;8.704;2023-06-24T12:25:30;9.07;;;8.37;;
1262;SDS011;62267;50.112;8.704;2023-06-24T12:27:57;8.00;;;7.23;;
1262;SDS011;62267;50.112;8.704;2023-06-24T12:30:28;7.73;;;6.93;;
1262;SDS011;62267;50.112;8.704;2023-06-24T12:32:57;8.77;;;7.87;;
1262;SDS011;62267;50.112;8.704;2023-06-24T12:35:25;9.27;;;8.47;;
1262;SDS011;62267;50.112;8.704;2023-06-24T12:37:53;7.87;;;7.20;;
1262;SDS011;62267;50.112;8.704;2023-06-24T12:40:24;7.97;;;7.30;;
1262;SDS011;62267;50.112;8.704;2023-06-24T12:42:51;8.50;;;7.70;;
1262;SDS011;62267;50.112;8.704;2023-06-24T12:45:22;8.00;;;7.30;;
1262;SDS011;62267;50.112;8.704;2023-06-24T12:47:52;8.60;;;7.77;;
1262;SDS011;62267;50.112;8.704;2023-06-24T12:50:22;7.63;;;7.03;;
1262;SDS011;62267;50.112;8.704;2023-06-24T12:52:49;7.70;;;7.10;;
1262;SDS011;62267;50.112;8.704;2023-06-24T12:55:17;9.00;;;8.10;;
1262;SDS011;62267;50.112;8.704;2023-06-24T12:57:45;9.33;;;8.10;;
1262;SDS011;62267;50.112;8.704;2023-06-24T13:00:13;8.17;;;7.37;;
1262;SDS011;62267;50.112;8.704;2023-06-24T13:02:42;8.40;;;7.60;;
1262;SDS011;62267;50.112;8.704;2023-06-24T13:05:11;7.93;;;7.23;;
1262;SDS011;62267;50.112;8.704;2023-06-24T13:07:39;10.67;;;7.40;;
1262;SDS011;62267;50.112;8.704;2023-06-24T13:10:09;7.13;;;6.53;;
1262;SDS011;62267;50.112;8.704;2023-06-24T13:12:39;7.33;;;6.73;;
1262;SDS011;62267;50.112;8.704;2023-06-24T13:15:06;7.27;;;6.67;;
1262;SDS011;62267;50.112;8.704;2023-06-24T13:17:37;7.87;;;7.27;;
1262;SDS011;62267;50.112;8.704;2023-06-24T13:20:07;16.07;;;13.50;;
1262;SDS011;62267;50.112;8.704;2023-06-24T13:22:37;9.53;;;8.63;;
1262;SDS011;62267;50.112;8.704;2023-06-24T13:25:05;9.07;;;7.80;;
1262;SDS011;62267;50.112;8.704;2023-06-24T13:27:33;8.47;;;7.70;;
1262;SDS011;62267;50.112;8.704;2023-06-24T13:30:05;8.43;;;7.73;;
1262;SDS011;62267;50.112;8.704;2023-06-24T13:32:32;9.33;;;8.50;;
1262;SDS011;62267;50.112;8.704;2023-06-24T13:35:01;9.07;;;7.80;;
1262;SDS011;62267;50.112;8.704;2023-06-24T13:37:30;9.30;;;8.50;;
1262;SDS011;62267;50.112;8.704;2023-06-24T13:39:59;7.30;;;6.70;;
1262;SDS011;62267;50.112;8.704;2023-06-24T13:42:26;7.90;;;7.10;;
1262;SDS011;62267;50.112;8.704;2023-06-24T13:44:54;8.67;;;7.80;;
1262;SDS011;62267;50.112;8.704;2023-06-24T13:47:24;8.40;;;7.70;;
1262;SDS011;62267;50.112;8.704;2023-06-24T13:49:52;9.23;;;8.47;;
1262;SDS011;62267;50.112;8.704;2023-06-24T13:52:26;8.53;;;7.90;;
1262;SDS011;62267;50.112;8.704;2023-06-24T13:54:54;8.50;;;7.80;;
1262;SDS011;62267;50.112;8.704;2023-06-24T13:57:21;8.50;;;7.70;;
1262;SDS011;62267;50.112;8.704;2023-06-24T13:59:48;7.70;;;7.13;;
1262;SDS011;62267;50.112;8.704;2023-06-24T14:02:16;8.23;;;6.67;;
1262;SDS011;62267;50.112;8.704;2023-06-24T14:04:46;9.17;;;8.27;;
1262;SDS011;62267;50.112;8.704;2023-06-24T14:07:14;8.30;;;7.50;;
1262;SDS011;62267;50.112;8.704;2023-06-24T14:09:42;6.57;;;6.10;;
1262;SDS011;62267;50.112;8.704;2023-06-24T14:12:11;8.27;;;7.60;;
1262;SDS011;62267;50.112;8.704;2023-06-24T14:14:38;7.50;;;6.83;;
1262;SDS011;62267;50.112;8.704;2023-06-24T14:17:06;6.93;;;6.33;;
1262;SDS011;62267;50.112;8.704;2023-06-24T14:19:39;7.90;;;7.10;;
1262;SDS011;62267;50.112;8.704;2023-06-24T14:22:11;8.23;;;7.53;;
1262;SDS011;62267;50.112;8.704;2023-06-24T14:24:40;7.83;;;7.20;;
1262;SDS011;62267;50.112;8.704;2023-06-24T14:27:11;8.50;;;7.70;;
1262;SDS011;62267;50.112;8.704;2023-06-24T14:29:39;8.77;;;6.73;;
1262;SDS011;62267;50.112;8.704;2023-06-24T14:32:12;7.90;;;7.10;;
1262;SDS011;62267;50.112;8.704;2023-06-24T14:34:40;7.57;;;6.87;;
1262;SDS011;62267;50.112;8.704;2023-06-24T14:37:09;7.30;;;6.70;;
1262;SDS011;62267;50.112;8.704;2023-06-24T14:39:36;8.03;;;7.47;;
1262;SDS011;62267;50.112;8.704;2023-06-24T14:42:05;7.50;;;6.90;;
1262;SDS011;62267;50.112;8.704;2023-06-24T14:44:36;8.13;;;7.33;;
1262;SDS011;62267;50.112;8.704;2023-06-24T14:47:04;8.47;;;7.77;;
1262;SDS011;62267;50.112;8.704;2023-06-24T14:49:32;8.50;;;7.70;;
1262;SDS011;62267;50.112;8.704;2023-06-24T14:51:59;8.70;;;7.53;;
1262;SDS011;62267;50.112;8.704;2023-06-24T14:54:28;8.37;;;7.73;;
1262;SDS011;62267;50.112;8.704;2023-06-24T14:56:56;11.10;;;10.10;;
1262;SDS011;62267;50.112;8.704;2023-06-24T14:59:24;9.50;;;8.70;;
1262;SDS011;62267;50.112;8.704;2023-06-24T15:01:52;10.10;;;9.10;;
1262;SDS011;62267;50.112;8.704;2023-06-24T15:04:20;10.30;;;7.40;;
1262;SDS011;62267;50.112;8.704;2023-06-24T15:06:49;7.73;;;7.13;;
1262;SDS011;62267;50.112;8.704;2023-06-24T15:09:16;8.23;;;7.53;;
1262;SDS011;62267;50.112;8.704;2023-06-24T15:11:45;8.60;;;7.90;;
1262;SDS011;62267;50.112;8.704;2023-06-24T15:14:12;7.10;;;6.60;;
1262;SDS011;62267;50.112;8.704;2023-06-24T15:16:40;9.13;;;8.33;;
1262;SDS011;62267;50.112;8.704;2023-06-24T15:19:07;7.80;;;7.20;;